createdAt,value
2019-04-03T00:00:55.273Z,43.10
2019-04-03T00:03:23.957Z,43.20
2019-04-03T00:05:52.765Z,43.10
2019-04-03T00:08:21.633Z,43.10
2019-04-03T00:10:50.335Z,43.20
2019-04-03T00:13:19.247Z,43.10
2019-04-03T00:15:48.097Z,43.10
2019-04-03T00:18:16.921Z,43.10
2019-04-03T00:20:46.894Z,42.90
2019-04-03T00:23:16.226Z,43.00
2019-04-03T00:25:46.320Z,42.90
2019-04-03T00:28:15.144Z,43.10
2019-04-03T00:30:43.929Z,42.80
2019-04-03T00:33:12.639Z,43.10
2019-04-03T00:35:41.380Z,42.90
2019-04-03T00:38:10.104Z,42.80
2019-04-03T00:40:38.711Z,42.90
2019-04-03T00:43:07.359Z,42.60
2019-04-03T00:45:35.955Z,42.80
2019-04-03T00:48:04.880Z,42.70
2019-04-03T00:50:33.608Z,42.80
2019-04-03T00:53:02.361Z,42.90
2019-04-03T00:55:30.981Z,42.80
2019-04-03T00:57:59.732Z,42.90
2019-04-03T01:00:28.417Z,43.00
2019-04-03T01:02:59.001Z,43.10
2019-04-03T01:05:28.514Z,43.60
2019-04-03T01:07:59.914Z,43.10
2019-04-03T01:10:29.794Z,43.10
2019-04-03T01:12:59.994Z,43.10
2019-04-03T01:15:29.790Z,43.40
2019-04-03T01:18:00.281Z,43.20
2019-04-03T01:20:29.033Z,43.10
2019-04-03T01:22:57.634Z,43.10
2019-04-03T01:25:26.579Z,43.30
2019-04-03T01:27:55.387Z,43.50
2019-04-03T01:30:24.221Z,43.80
2019-04-03T01:32:52.826Z,43.70
2019-04-03T01:35:22.032Z,43.80
2019-04-03T01:37:50.739Z,43.60
2019-04-03T01:40:20.863Z,43.70
2019-04-03T01:42:52.156Z,43.70
2019-04-03T01:45:20.215Z,43.90
2019-04-03T01:47:48.967Z,44.00
2019-04-03T01:50:17.813Z,44.20
2019-04-03T01:52:46.762Z,44.40
2019-04-03T01:55:15.578Z,44.60
2019-04-03T01:57:44.306Z,44.50
2019-04-03T02:00:13.586Z,44.60
2019-04-03T02:02:42.433Z,44.70
2019-04-03T02:05:12.744Z,45.00
2019-04-03T02:07:44.253Z,45.30
2019-04-03T02:10:17.298Z,45.30
2019-04-03T02:12:45.702Z,45.30
2019-04-03T02:15:14.454Z,45.50
2019-04-03T02:17:43.514Z,45.40
2019-04-03T02:20:13.341Z,45.70
2019-04-03T02:22:42.348Z,45.70
2019-04-03T02:25:11.236Z,45.70
2019-04-03T02:27:40.123Z,46.00
2019-04-03T02:30:12.969Z,46.20
2019-04-03T02:32:40.525Z,46.20
2019-04-03T02:35:12.600Z,46.40
2019-04-03T02:37:41.583Z,46.60
2019-04-03T02:40:10.499Z,46.60
2019-04-03T02:42:41.589Z,46.80
2019-04-03T02:45:09.675Z,46.70
2019-04-03T02:47:38.462Z,46.70
2019-04-03T02:50:07.850Z,47.20
2019-04-03T02:52:37.208Z,47.30
2019-04-03T02:55:08.438Z,47.40
2019-04-03T02:57:37.489Z,47.30
2019-04-03T03:00:08.779Z,47.40
2019-04-03T03:02:37.682Z,47.70
2019-04-03T03:05:06.785Z,47.70
2019-04-03T03:07:36.307Z,48.00
2019-04-03T03:10:08.423Z,48.10
2019-04-03T03:12:39.220Z,48.10
2019-04-03T03:15:12.188Z,48.10
2019-04-03T03:17:40.784Z,48.30
2019-04-03T03:20:10.202Z,48.30
2019-04-03T03:22:41.091Z,48.50
2019-04-03T03:25:10.702Z,48.60
2019-04-03T03:27:41.691Z,48.80
2019-04-03T03:30:34.137Z,48.90
2019-04-03T03:32:42.254Z,49.30
2019-04-03T03:35:15.787Z,49.40
2019-04-03T03:37:42.087Z,49.20
2019-04-03T03:40:11.196Z,49.70
2019-04-03T03:42:40.297Z,49.50
2019-04-03T03:45:11.556Z,49.60
2019-04-03T03:47:40.503Z,49.80
2019-04-03T03:50:10.020Z,50.00
2019-04-03T03:52:39.267Z,50.00
2019-04-03T03:55:09.192Z,50.10
2019-04-03T03:57:40.489Z,50.50
2019-04-03T04:00:10.157Z,50.50
2019-04-03T04:02:43.134Z,50.90
2019-04-03T04:05:11.887Z,50.80
2019-04-03T04:07:41.220Z,51.00
2019-04-03T04:10:10.978Z,50.60
2019-04-03T04:12:40.914Z,50.50
2019-04-03T04:15:10.230Z,50.90
2019-04-03T04:17:39.330Z,51.20
2019-04-03T04:20:08.496Z,51.10
2019-04-03T04:22:38.677Z,51.30
2019-04-03T04:25:08.024Z,51.20
2019-04-03T04:27:38.626Z,51.30
2019-04-03T04:30:07.664Z,51.20
2019-04-03T04:32:36.609Z,51.20
2019-04-03T04:35:08.934Z,51.60
2019-04-03T04:37:40.012Z,51.70
2019-04-03T04:40:08.111Z,51.80
2019-04-03T04:42:36.734Z,51.80
2019-04-03T04:45:09.787Z,51.30
2019-04-03T04:47:39.147Z,51.40
2019-04-03T04:50:07.878Z,52.00
2019-04-03T04:52:36.800Z,52.00
2019-04-03T04:55:05.872Z,51.60
2019-04-03T04:57:34.687Z,51.40
2019-04-03T05:00:05.080Z,50.80
2019-04-03T05:02:35.245Z,51.10
2019-04-03T05:05:08.342Z,50.70
2019-04-03T05:07:36.007Z,50.50
2019-04-03T05:10:06.720Z,49.40
2019-04-03T05:12:35.505Z,48.50
2019-04-03T05:15:05.498Z,47.30
2019-04-03T05:17:34.439Z,46.70
2019-04-03T05:20:03.312Z,45.00
2019-04-03T05:22:32.130Z,44.30
2019-04-03T05:25:01.278Z,42.70
2019-04-03T05:27:30.198Z,42.30
2019-04-03T05:29:58.841Z,41.70
2019-04-03T05:32:27.630Z,41.40
2019-04-03T05:34:56.418Z,42.60
2019-04-03T05:37:25.766Z,41.50
2019-04-03T05:39:55.560Z,40.50
2019-04-03T05:42:24.442Z,40.90
2019-04-03T05:44:53.114Z,40.00
2019-04-03T05:47:22.007Z,40.50
2019-04-03T05:49:52.603Z,40.80
2019-04-03T05:52:20.996Z,40.70
2019-04-03T05:54:49.879Z,41.50
2019-04-03T05:57:18.535Z,40.20
2019-04-03T05:59:58.659Z,39.20
2019-04-03T06:02:20.713Z,40.20
2019-04-03T06:04:49.612Z,39.80
2019-04-03T06:07:18.960Z,38.80
2019-04-03T06:09:47.857Z,37.80
2019-04-03T06:12:18.688Z,37.50
2019-04-03T06:14:49.683Z,36.70
2019-04-03T06:17:17.705Z,36.40
2019-04-03T06:19:46.731Z,36.30
2019-04-03T06:22:17.031Z,35.70
2019-04-03T06:24:46.156Z,35.00
2019-04-03T06:27:14.892Z,36.20
2019-04-03T06:29:43.917Z,36.30
2019-04-03T06:32:12.730Z,35.30
2019-04-03T06:34:53.804Z,35.00
2019-04-03T06:37:35.890Z,35.00
2019-04-03T06:40:28.637Z,35.50
2019-04-03T06:43:18.409Z,36.20
2019-04-03T06:45:46.843Z,34.60
2019-04-03T06:48:15.982Z,36.50
2019-04-03T06:50:45.071Z,35.60
2019-04-03T06:53:14.196Z,35.00
2019-04-03T06:55:43.116Z,35.30
2019-04-03T06:58:12.400Z,37.10
2019-04-03T07:00:41.759Z,36.90
2019-04-03T07:03:11.050Z,35.00
2019-04-03T07:05:53.226Z,36.00
2019-04-03T07:08:34.389Z,34.70
2019-04-03T07:10:58.498Z,34.30
2019-04-03T07:13:30.055Z,35.80
2019-04-03T07:15:58.871Z,36.10
2019-04-03T07:18:28.058Z,35.60
2019-04-03T07:20:57.295Z,35.70
2019-04-03T07:23:26.130Z,35.00
2019-04-03T07:25:55.381Z,35.00
2019-04-03T07:28:24.490Z,34.40
2019-04-03T07:30:53.961Z,35.00
2019-04-03T07:33:23.321Z,34.50
2019-04-03T07:35:52.447Z,34.40
2019-04-03T07:38:22.710Z,33.20
2019-04-03T07:40:55.018Z,33.40
2019-04-03T07:43:26.292Z,33.90
2019-04-03T07:45:54.969Z,33.40
2019-04-03T07:48:23.942Z,34.00
2019-04-03T07:50:53.148Z,34.00
2019-04-03T07:53:22.261Z,34.00
2019-04-03T07:55:51.047Z,34.10
2019-04-03T07:58:19.849Z,33.20
2019-04-03T08:00:49.285Z,33.40
2019-04-03T08:03:20.356Z,34.70
2019-04-03T08:05:48.625Z,33.80
2019-04-03T08:08:17.329Z,33.10
2019-04-03T08:10:46.151Z,32.60
2019-04-03T08:13:15.087Z,33.10
2019-04-03T08:15:45.448Z,33.80
2019-04-03T08:18:14.461Z,34.30
2019-04-03T08:20:43.331Z,33.60
2019-04-03T08:23:12.139Z,33.70
2019-04-03T08:25:43.271Z,33.10
2019-04-03T08:28:11.988Z,32.80
2019-04-03T08:30:41.140Z,32.10
2019-04-03T08:33:16.047Z,32.90
2019-04-03T08:35:40.730Z,32.30
2019-04-03T08:38:12.481Z,32.90
2019-04-03T08:40:40.455Z,32.60
2019-04-03T08:43:09.720Z,32.60
2019-04-03T08:45:39.240Z,31.50
2019-04-03T08:48:08.633Z,32.10
2019-04-03T08:50:39.184Z,32.20
2019-04-03T08:53:08.870Z,32.60
2019-04-03T08:55:38.818Z,32.90
2019-04-03T08:58:08.116Z,32.40
2019-04-03T09:00:40.739Z,33.20
2019-04-03T09:03:09.807Z,33.30
2019-04-03T09:05:39.867Z,32.70
2019-04-03T09:08:09.007Z,32.20
2019-04-03T09:10:38.381Z,32.50
2019-04-03T09:13:17.689Z,31.30
2019-04-03T09:15:50.092Z,30.70
2019-04-03T09:18:19.114Z,31.20
2019-04-03T09:20:51.319Z,30.50
2019-04-03T09:23:24.315Z,30.20
2019-04-03T09:25:52.255Z,29.60
2019-04-03T09:28:21.189Z,29.00
2019-04-03T09:30:55.018Z,29.20
2019-04-03T09:33:29.219Z,29.70
2019-04-03T09:35:58.991Z,29.40
2019-04-03T09:38:28.221Z,30.00
2019-04-03T09:40:57.452Z,30.20
2019-04-03T09:43:28.389Z,29.20
2019-04-03T09:45:59.400Z,29.40
2019-04-03T09:48:27.973Z,29.00
2019-04-03T09:50:59.882Z,28.60
2019-04-03T09:53:29.005Z,29.00
2019-04-03T09:56:01.596Z,28.60
2019-04-03T09:58:30.738Z,28.90
2019-04-03T10:00:59.951Z,28.20
2019-04-03T10:03:31.296Z,28.30
2019-04-03T10:06:00.167Z,28.50
2019-04-03T10:08:29.761Z,28.80
2019-04-03T10:11:02.693Z,29.10
2019-04-03T10:13:42.938Z,29.50
2019-04-03T10:16:15.283Z,29.10
2019-04-03T10:18:43.818Z,28.10
2019-04-03T10:21:13.479Z,27.80
2019-04-03T10:23:42.361Z,28.10
2019-04-03T10:26:11.183Z,27.80
2019-04-03T10:28:42.156Z,28.60
2019-04-03T10:31:12.739Z,28.40
2019-04-03T10:33:41.319Z,28.50
2019-04-03T10:36:11.895Z,28.10
2019-04-03T10:38:42.807Z,28.10
2019-04-03T10:41:12.027Z,27.60
2019-04-03T10:43:43.044Z,27.50
2019-04-03T10:46:12.090Z,27.80
2019-04-03T10:48:42.571Z,27.40
2019-04-03T10:51:11.905Z,27.90
2019-04-03T10:53:41.117Z,27.70
2019-04-03T10:56:10.258Z,27.60
2019-04-03T10:58:43.741Z,27.50
2019-04-03T11:01:12.558Z,27.20
2019-04-03T11:03:41.430Z,27.50
2019-04-03T11:06:12.837Z,27.90
2019-04-03T11:08:41.412Z,26.80
2019-04-03T11:11:10.474Z,27.40
2019-04-03T11:13:39.374Z,27.90
2019-04-03T11:16:08.396Z,28.10
2019-04-03T11:18:37.457Z,28.20
2019-04-03T11:21:06.987Z,28.10
2019-04-03T11:23:40.058Z,28.40
2019-04-03T11:26:06.065Z,28.60
2019-04-03T11:28:37.076Z,28.40
2019-04-03T11:31:05.149Z,28.00
2019-04-03T11:33:34.504Z,28.40
2019-04-03T11:36:03.275Z,28.50
2019-04-03T11:38:32.261Z,28.20
2019-04-03T11:41:11.641Z,28.30
2019-04-03T11:43:32.356Z,28.70
2019-04-03T11:46:01.472Z,28.00
2019-04-03T11:48:30.374Z,27.90
2019-04-03T11:50:59.068Z,27.80
2019-04-03T11:53:28.131Z,27.60
2019-04-03T11:55:57.067Z,28.20
2019-04-03T11:58:25.628Z,28.40
2019-04-03T12:00:54.547Z,28.70
2019-04-03T12:03:23.180Z,28.00
2019-04-03T12:05:52.011Z,28.20
2019-04-03T12:08:20.689Z,27.80
2019-04-03T12:10:49.644Z,27.40
2019-04-03T12:13:21.024Z,27.50
2019-04-03T12:15:52.143Z,28.00
2019-04-03T12:18:19.412Z,27.70
2019-04-03T12:20:49.829Z,27.30
2019-04-03T12:23:18.349Z,27.40
2019-04-03T12:25:46.995Z,27.60
2019-04-03T12:28:17.415Z,27.50
2019-04-03T12:30:46.098Z,27.70
2019-04-03T12:33:14.774Z,27.70
2019-04-03T12:35:44.022Z,27.60
2019-04-03T12:38:13.033Z,27.60
2019-04-03T12:40:41.756Z,27.70
2019-04-03T12:43:10.755Z,28.30
2019-04-03T12:45:39.474Z,28.30
2019-04-03T12:48:08.120Z,28.20
2019-04-03T12:50:36.959Z,28.40
2019-04-03T12:53:05.976Z,28.30
2019-04-03T12:55:35.026Z,27.70
2019-04-03T12:58:05.108Z,28.00
2019-04-03T13:00:34.082Z,28.00
2019-04-03T13:03:02.912Z,27.90
2019-04-03T13:05:32.195Z,28.40
2019-04-03T13:08:01.140Z,28.70
2019-04-03T13:10:40.287Z,28.20
2019-04-03T13:13:00.133Z,27.80
2019-04-03T13:15:28.782Z,28.60
2019-04-03T13:17:57.631Z,28.50
2019-04-03T13:20:26.703Z,27.90
2019-04-03T13:22:57.211Z,28.20
2019-04-03T13:25:26.029Z,28.70
2019-04-03T13:27:55.032Z,28.70
2019-04-03T13:30:24.473Z,28.30
2019-04-03T13:32:59.551Z,28.30
2019-04-03T13:35:23.474Z,28.50
2019-04-03T13:37:55.539Z,28.90
2019-04-03T13:40:23.799Z,28.30
2019-04-03T13:42:52.859Z,28.20
2019-04-03T13:45:21.941Z,28.40
2019-04-03T13:47:50.524Z,28.40
2019-04-03T13:50:21.751Z,28.50
2019-04-03T13:52:50.515Z,28.30
2019-04-03T13:55:19.772Z,28.50
2019-04-03T13:57:49.479Z,28.60
2019-04-03T14:00:22.698Z,28.50
2019-04-03T14:02:49.415Z,28.40
2019-04-03T14:05:18.061Z,28.30
2019-04-03T14:07:46.747Z,28.40
2019-04-03T14:10:16.493Z,28.50
2019-04-03T14:12:45.824Z,28.30
2019-04-03T14:15:14.763Z,28.00
2019-04-03T14:17:54.098Z,28.30
2019-04-03T14:20:14.388Z,28.50
2019-04-03T14:22:43.053Z,28.50
2019-04-03T14:25:19.910Z,28.20
2019-04-03T14:27:42.947Z,28.50
2019-04-03T14:30:12.602Z,28.40
2019-04-03T14:32:44.139Z,28.30
2019-04-03T14:35:39.021Z,28.50
2019-04-03T14:37:42.405Z,28.60
2019-04-03T14:40:12.886Z,28.50
2019-04-03T14:42:42.144Z,28.40
2019-04-03T14:45:14.450Z,28.50
2019-04-03T14:47:41.900Z,28.40
2019-04-03T14:50:11.200Z,28.60
2019-04-03T14:52:40.127Z,28.70
2019-04-03T14:55:19.633Z,28.40
2019-04-03T14:57:39.476Z,28.70
2019-04-03T15:00:24.608Z,28.90
2019-04-03T15:02:41.527Z,28.90
2019-04-03T15:05:10.808Z,28.80
2019-04-03T15:07:40.445Z,28.80
2019-04-03T15:10:11.713Z,28.60
2019-04-03T15:12:41.034Z,29.10
2019-04-03T15:15:10.606Z,28.80
2019-04-03T15:17:39.284Z,28.70
2019-04-03T15:20:12.709Z,29.00
2019-04-03T15:22:41.526Z,29.30
2019-04-03T15:25:12.901Z,28.80
2019-04-03T15:27:42.485Z,29.30
2019-04-03T15:30:12.702Z,29.10
2019-04-03T15:32:41.818Z,28.90
2019-04-03T15:35:11.358Z,29.10
2019-04-03T15:37:42.560Z,29.20
2019-04-03T15:40:11.793Z,28.90
2019-04-03T15:42:41.433Z,29.50
2019-04-03T15:45:11.658Z,29.70
2019-04-03T15:47:45.007Z,29.60
2019-04-03T15:50:11.894Z,29.10
2019-04-03T15:52:43.542Z,29.00
2019-04-03T15:55:12.886Z,29.00
2019-04-03T15:57:42.364Z,28.90
2019-04-03T16:00:14.619Z,29.10
2019-04-03T16:02:45.697Z,29.30
2019-04-03T16:05:17.853Z,29.30
2019-04-03T16:07:46.607Z,29.50
2019-04-03T16:10:15.592Z,29.40
2019-04-03T16:12:44.415Z,29.70
2019-04-03T16:15:13.809Z,29.60
2019-04-03T16:17:43.197Z,29.60
2019-04-03T16:20:17.193Z,29.70
2019-04-03T16:22:45.954Z,30.00
2019-04-03T16:25:17.211Z,30.10
2019-04-03T16:27:46.542Z,30.20
2019-04-03T16:30:18.750Z,30.60
2019-04-03T16:32:47.477Z,30.80
2019-04-03T16:35:16.337Z,30.50
2019-04-03T16:37:46.271Z,30.20
2019-04-03T16:40:17.178Z,30.20
2019-04-03T16:42:48.241Z,30.20
2019-04-03T16:45:18.401Z,30.50
2019-04-03T16:47:47.221Z,30.30
2019-04-03T16:50:16.823Z,30.70
2019-04-03T16:52:47.408Z,30.50
2019-04-03T16:55:17.600Z,30.50
2019-04-03T16:57:46.564Z,30.50
2019-04-03T17:00:16.065Z,30.70
2019-04-03T17:02:44.971Z,30.80
2019-04-03T17:05:14.063Z,31.00
2019-04-03T17:07:44.011Z,31.10
2019-04-03T17:10:13.083Z,31.10
2019-04-03T17:12:45.385Z,31.60
2019-04-03T17:15:14.487Z,31.70
2019-04-03T17:17:45.670Z,32.20
2019-04-03T17:20:13.964Z,32.30
2019-04-03T17:22:45.027Z,32.40
2019-04-03T17:25:15.146Z,32.60
2019-04-03T17:27:55.119Z,32.60
2019-04-03T17:30:18.326Z,32.50
2019-04-03T17:32:47.227Z,32.40
2019-04-03T17:35:16.357Z,32.30
2019-04-03T17:37:45.955Z,32.60
2019-04-03T17:40:15.032Z,32.60
2019-04-03T17:42:43.794Z,32.90
2019-04-03T17:45:15.523Z,32.70
2019-04-03T17:47:43.183Z,32.60
2019-04-03T17:50:12.165Z,33.20
2019-04-03T17:52:42.356Z,32.60
2019-04-03T17:55:11.367Z,32.70
2019-04-03T17:57:44.421Z,32.60
2019-04-03T18:00:16.732Z,32.70
2019-04-03T18:02:45.474Z,32.80
2019-04-03T18:05:14.915Z,32.90
2019-04-03T18:07:43.721Z,33.00
2019-04-03T18:10:13.142Z,33.10
2019-04-03T18:12:42.185Z,33.00
2019-04-03T18:15:11.880Z,33.00
2019-04-03T18:17:40.628Z,33.10
2019-04-03T18:20:12.652Z,33.30
2019-04-03T18:22:40.564Z,33.20
2019-04-03T18:25:09.577Z,33.20
2019-04-03T18:27:38.384Z,34.00
2019-04-03T18:30:11.694Z,33.40
2019-04-03T18:32:39.767Z,33.40
2019-04-03T18:35:09.162Z,33.50
2019-04-03T18:37:40.584Z,33.40
2019-04-03T18:40:15.085Z,33.20
2019-04-03T18:42:43.652Z,33.60
2019-04-03T18:45:24.547Z,33.40
2019-04-03T18:47:45.795Z,33.50
2019-04-03T18:50:14.488Z,34.50
2019-04-03T18:52:43.381Z,33.70
2019-04-03T18:55:14.633Z,33.70
2019-04-03T18:57:42.720Z,33.80
2019-04-03T19:00:12.970Z,33.60
2019-04-03T19:02:41.798Z,33.80
2019-04-03T19:05:13.802Z,33.90
2019-04-03T19:07:41.076Z,33.80
2019-04-03T19:10:10.530Z,33.80
2019-04-03T19:12:39.104Z,33.90
2019-04-03T19:15:08.158Z,33.90
2019-04-03T19:17:37.156Z,33.80
2019-04-03T19:20:10.637Z,34.50
2019-04-03T19:22:38.884Z,33.90
2019-04-03T19:25:09.645Z,34.20
2019-04-03T19:27:38.531Z,34.20
2019-04-03T19:30:08.277Z,34.30
2019-04-03T19:32:37.511Z,34.20
2019-04-03T19:35:09.514Z,34.10
2019-04-03T19:37:38.462Z,34.00
2019-04-03T19:40:09.880Z,34.30
2019-04-03T19:42:38.416Z,34.40
2019-04-03T19:45:08.321Z,34.50
2019-04-03T19:47:37.239Z,34.50
2019-04-03T19:50:08.294Z,34.60
2019-04-03T19:52:37.473Z,34.80
2019-04-03T19:55:08.632Z,35.10
2019-04-03T19:57:37.417Z,34.70
2019-04-03T20:00:08.134Z,35.00
2019-04-03T20:02:38.200Z,34.90
2019-04-03T20:05:07.610Z,35.20
2019-04-03T20:07:36.416Z,35.10
2019-04-03T20:10:10.620Z,35.20
2019-04-03T20:12:40.654Z,35.30
2019-04-03T20:15:10.063Z,35.50
2019-04-03T20:17:39.113Z,35.50
2019-04-03T20:20:09.696Z,35.50
2019-04-03T20:22:42.149Z,35.50
2019-04-03T20:25:09.893Z,35.50
2019-04-03T20:27:38.920Z,35.70
2019-04-03T20:30:09.133Z,35.70
2019-04-03T20:32:40.102Z,35.80
2019-04-03T20:35:08.770Z,35.90
2019-04-03T20:37:37.782Z,35.80
2019-04-03T20:40:07.188Z,35.80
2019-04-03T20:42:36.408Z,35.90
2019-04-03T20:45:07.224Z,35.90
2019-04-03T20:47:36.436Z,36.20
2019-04-03T20:50:07.531Z,36.10
2019-04-03T20:52:36.853Z,36.20
2019-04-03T20:55:09.065Z,36.30
2019-04-03T20:57:37.797Z,36.10
2019-04-03T21:00:12.197Z,36.20
2019-04-03T21:02:42.190Z,36.30
2019-04-03T21:05:11.844Z,36.40
2019-04-03T21:07:40.975Z,36.70
2019-04-03T21:10:09.952Z,36.60
2019-04-03T21:12:38.821Z,36.40
2019-04-03T21:15:09.239Z,36.30
2019-04-03T21:17:38.243Z,36.20
2019-04-03T21:20:07.488Z,36.60
2019-04-03T21:22:36.360Z,36.50
2019-04-03T21:25:06.484Z,36.20
2019-04-03T21:27:35.222Z,36.40
2019-04-03T21:30:08.439Z,36.60
2019-04-03T21:32:37.259Z,36.70
2019-04-03T21:35:06.234Z,36.60
2019-04-03T21:37:35.098Z,36.80
2019-04-03T21:40:05.307Z,37.10
2019-04-03T21:42:34.210Z,37.20
2019-04-03T21:45:07.266Z,37.20
2019-04-03T21:47:33.478Z,37.40
2019-04-03T21:50:03.783Z,37.40
2019-04-03T21:52:32.528Z,37.50
2019-04-03T21:55:01.173Z,37.80
2019-04-03T21:57:29.820Z,37.60
2019-04-03T21:59:58.464Z,37.80
2019-04-03T22:02:27.166Z,37.80
2019-04-03T22:04:55.956Z,38.00
2019-04-03T22:07:24.649Z,38.10
2019-04-03T22:09:53.510Z,38.20
2019-04-03T22:12:22.191Z,38.20
2019-04-03T22:14:50.936Z,38.10
2019-04-03T22:17:21.655Z,38.50
2019-04-03T22:19:49.904Z,38.40
2019-04-03T22:22:18.524Z,38.40
2019-04-03T22:24:47.338Z,38.40
2019-04-03T22:27:16.058Z,38.40
2019-04-03T22:29:44.743Z,38.50
2019-04-03T22:32:13.384Z,38.60
2019-04-03T22:34:42.090Z,38.70
2019-04-03T22:37:10.896Z,38.70
2019-04-03T22:39:39.736Z,39.20
2019-04-03T22:42:08.422Z,38.80
2019-04-03T22:44:37.108Z,38.80
2019-04-03T22:47:05.980Z,38.80
2019-04-03T22:49:34.600Z,39.10
2019-04-03T22:52:03.305Z,39.20
2019-04-03T22:54:31.924Z,39.20
2019-04-03T22:57:00.776Z,39.70
2019-04-03T22:59:29.639Z,39.60
2019-04-03T23:02:00.697Z,39.60
2019-04-03T23:04:28.923Z,39.70
2019-04-03T23:06:59.083Z,39.80
2019-04-03T23:09:27.843Z,39.90
2019-04-03T23:11:56.610Z,39.80
2019-04-03T23:14:25.320Z,40.00
2019-04-03T23:16:54.113Z,40.10
2019-04-03T23:19:22.740Z,40.40
2019-04-03T23:21:52.891Z,40.40
2019-04-03T23:24:21.806Z,40.70
2019-04-03T23:26:50.569Z,40.60
2019-04-03T23:29:19.362Z,40.80
2019-04-03T23:31:48.014Z,40.80
2019-04-03T23:34:18.715Z,40.90
2019-04-03T23:36:47.124Z,41.10
2019-04-03T23:39:16.192Z,41.20
2019-04-03T23:41:45.032Z,41.90
2019-04-03T23:44:13.920Z,41.40
2019-04-03T23:46:45.379Z,41.50
2019-04-03T23:49:14.151Z,41.90
2019-04-03T23:51:42.845Z,42.00
2019-04-03T23:54:11.726Z,42.00
2019-04-03T23:56:40.706Z,42.10
2019-04-03T23:59:12.787Z,42.30
